Forks Township, Pennsylvania
Current Conditions -  °F | °C
As of 8:51 PM on Monday 22 Dec 2014 (Local Time) from KABE Reporting Station
Light Rain Light Rain  
Wind Chill: 33°   Ceiling: 500
Heat Index: 37°   Visibility: 2.5mi
Dew Point: 34°   Wind: 5mph
Humidity: 89%   Direction: 60°ENE
Pressure: 30.2"   Gusts: NA
Location:  40.7421°N, 75.2249°W
Report Text: KABE 230151Z 06004KT 2 1/2SM -RA BR OVC005 03/01 A3020 RMK AO2 SFC VIS 4 RAB05UPB40E42 SLP230 P0000 T00280011
Loading
Personal Weather Stations






























Interactive Weather Map New forecast layout! Learn more

10-Day Weather Forecast

Advertisements
Track Severe Weather on mobile